sensor_id;sensor_type;location;lat;lon;timestamp;P1;durP1;ratioP1;P2;durP2;ratioP2
13708;SDS011;54933;51.908;7.730;2022-11-15T00:01:05;4.17;;;2.40;;
13708;SDS011;54933;51.908;7.730;2022-11-15T00:03:31;2.23;;;2.03;;
13708;SDS011;54933;51.908;7.730;2022-11-15T00:06:00;2.80;;;2.47;;
13708;SDS011;54933;51.908;7.730;2022-11-15T00:08:28;2.60;;;2.40;;
13708;SDS011;54933;51.908;7.730;2022-11-15T00:10:55;3.73;;;2.57;;
13708;SDS011;54933;51.908;7.730;2022-11-15T00:13:24;2.63;;;2.40;;
13708;SDS011;54933;51.908;7.730;2022-11-15T00:15:50;2.67;;;2.47;;
13708;SDS011;54933;51.908;7.730;2022-11-15T00:18:15;2.63;;;2.00;;
13708;SDS011;54933;51.908;7.730;2022-11-15T00:20:41;3.53;;;2.50;;
13708;SDS011;54933;51.908;7.730;2022-11-15T00:23:06;3.90;;;2.43;;
13708;SDS011;54933;51.908;7.730;2022-11-15T00:25:32;3.00;;;2.17;;
13708;SDS011;54933;51.908;7.730;2022-11-15T00:27:58;2.40;;;2.17;;
13708;SDS011;54933;51.908;7.730;2022-11-15T00:30:24;4.10;;;2.53;;
13708;SDS011;54933;51.908;7.730;2022-11-15T00:32:50;2.83;;;2.17;;
13708;SDS011;54933;51.908;7.730;2022-11-15T00:35:16;2.33;;;1.80;;
13708;SDS011;54933;51.908;7.730;2022-11-15T00:37:41;2.40;;;2.20;;
13708;SDS011;54933;51.908;7.730;2022-11-15T00:40:07;2.60;;;2.40;;
13708;SDS011;54933;51.908;7.730;2022-11-15T00:42:33;2.47;;;2.27;;
13708;SDS011;54933;51.908;7.730;2022-11-15T00:44:58;2.90;;;2.30;;
13708;SDS011;54933;51.908;7.730;2022-11-15T00:47:24;2.03;;;1.93;;
13708;SDS011;54933;51.908;7.730;2022-11-15T00:49:49;2.47;;;2.27;;
13708;SDS011;54933;51.908;7.730;2022-11-15T00:52:14;1.70;;;1.60;;
13708;SDS011;54933;51.908;7.730;2022-11-15T00:54:39;2.83;;;2.07;;
13708;SDS011;54933;51.908;7.730;2022-11-15T00:57:05;2.37;;;2.13;;
13708;SDS011;54933;51.908;7.730;2022-11-15T00:59:30;2.50;;;2.30;;
13708;SDS011;54933;51.908;7.730;2022-11-15T01:01:55;3.17;;;2.20;;
13708;SDS011;54933;51.908;7.730;2022-11-15T01:04:20;2.27;;;1.90;;
13708;SDS011;54933;51.908;7.730;2022-11-15T01:06:46;2.20;;;2.00;;
13708;SDS011;54933;51.908;7.730;2022-11-15T01:09:11;2.67;;;2.07;;
13708;SDS011;54933;51.908;7.730;2022-11-15T01:11:36;2.10;;;1.90;;
13708;SDS011;54933;51.908;7.730;2022-11-15T01:14:02;5.03;;;2.00;;
13708;SDS011;54933;51.908;7.730;2022-11-15T01:16:27;2.10;;;1.90;;
13708;SDS011;54933;51.908;7.730;2022-11-15T01:18:52;2.47;;;2.13;;
13708;SDS011;54933;51.908;7.730;2022-11-15T01:21:18;3.60;;;2.00;;
13708;SDS011;54933;51.908;7.730;2022-11-15T01:23:44;2.13;;;1.60;;
13708;SDS011;54933;51.908;7.730;2022-11-15T01:26:11;1.93;;;1.83;;
13708;SDS011;54933;51.908;7.730;2022-11-15T01:28:39;2.20;;;1.50;;
13708;SDS011;54933;51.908;7.730;2022-11-15T01:31:09;3.93;;;1.83;;
13708;SDS011;54933;51.908;7.730;2022-11-15T01:33:38;2.90;;;2.00;;
13708;SDS011;54933;51.908;7.730;2022-11-15T01:36:06;2.50;;;2.10;;
13708;SDS011;54933;51.908;7.730;2022-11-15T01:38:35;1.90;;;1.80;;
13708;SDS011;54933;51.908;7.730;2022-11-15T01:41:00;1.83;;;1.73;;
13708;SDS011;54933;51.908;7.730;2022-11-15T01:43:29;3.20;;;1.97;;
13708;SDS011;54933;51.908;7.730;2022-11-15T01:45:58;1.70;;;1.60;;
13708;SDS011;54933;51.908;7.730;2022-11-15T01:48:31;2.37;;;1.80;;
13708;SDS011;54933;51.908;7.730;2022-11-15T01:50:59;5.40;;;1.93;;
13708;SDS011;54933;51.908;7.730;2022-11-15T01:53:27;2.10;;;1.90;;
13708;SDS011;54933;51.908;7.730;2022-11-15T01:55:54;2.03;;;1.70;;
13708;SDS011;54933;51.908;7.730;2022-11-15T01:58:20;2.37;;;2.10;;
13708;SDS011;54933;51.908;7.730;2022-11-15T02:00:46;1.83;;;1.67;;
13708;SDS011;54933;51.908;7.730;2022-11-15T02:03:12;1.93;;;1.70;;
13708;SDS011;54933;51.908;7.730;2022-11-15T02:05:38;3.77;;;2.00;;
13708;SDS011;54933;51.908;7.730;2022-11-15T02:08:04;2.33;;;1.60;;
13708;SDS011;54933;51.908;7.730;2022-11-15T02:10:31;1.87;;;1.67;;
13708;SDS011;54933;51.908;7.730;2022-11-15T02:12:56;2.53;;;2.03;;
13708;SDS011;54933;51.908;7.730;2022-11-15T02:15:26;1.77;;;1.67;;
13708;SDS011;54933;51.908;7.730;2022-11-15T02:18:05;2.47;;;1.70;;
13708;SDS011;54933;51.908;7.730;2022-11-15T02:20:47;2.30;;;1.70;;
13708;SDS011;54933;51.908;7.730;2022-11-15T02:26:45;1.57;;;1.47;;
13708;SDS011;54933;51.908;7.730;2022-11-15T02:32:21;1.80;;;1.70;;
13708;SDS011;54933;51.908;7.730;2022-11-15T02:35:02;2.10;;;1.90;;
13708;SDS011;54933;51.908;7.730;2022-11-15T02:37:37;1.87;;;1.53;;
13708;SDS011;54933;51.908;7.730;2022-11-15T02:40:11;1.60;;;1.50;;
13708;SDS011;54933;51.908;7.730;2022-11-15T02:42:46;2.20;;;1.40;;
13708;SDS011;54933;51.908;7.730;2022-11-15T02:45:41;1.47;;;1.37;;
13708;SDS011;54933;51.908;7.730;2022-11-15T02:48:15;1.73;;;1.63;;
13708;SDS011;54933;51.908;7.730;2022-11-15T02:50:42;1.57;;;1.47;;
13708;SDS011;54933;51.908;7.730;2022-11-15T02:53:09;1.63;;;1.53;;
13708;SDS011;54933;51.908;7.730;2022-11-15T02:55:37;1.73;;;1.60;;
13708;SDS011;54933;51.908;7.730;2022-11-15T02:58:24;1.73;;;1.43;;
13708;SDS011;54933;51.908;7.730;2022-11-15T03:03:59;1.57;;;1.47;;
13708;SDS011;54933;51.908;7.730;2022-11-15T03:06:46;2.50;;;1.70;;
13708;SDS011;54933;51.908;7.730;2022-11-15T03:11:59;1.53;;;1.43;;
13708;SDS011;54933;51.908;7.730;2022-11-15T03:18:19;1.40;;;1.30;;
13708;SDS011;54933;51.908;7.730;2022-11-15T03:20:25;1.33;;;1.23;;
13708;SDS011;54933;51.908;7.730;2022-11-15T03:22:52;1.40;;;1.30;;
13708;SDS011;54933;51.908;7.730;2022-11-15T03:25:22;1.90;;;1.53;;
13708;SDS011;54933;51.908;7.730;2022-11-15T03:27:51;1.57;;;1.47;;
13708;SDS011;54933;51.908;7.730;2022-11-15T03:30:20;1.30;;;1.30;;
13708;SDS011;54933;51.908;7.730;2022-11-15T03:32:55;1.07;;;1.07;;
13708;SDS011;54933;51.908;7.730;2022-11-15T03:35:27;1.47;;;1.37;;
13708;SDS011;54933;51.908;7.730;2022-11-15T03:40:36;1.43;;;1.43;;
13708;SDS011;54933;51.908;7.730;2022-11-15T03:43:10;1.20;;;1.10;;
13708;SDS011;54933;51.908;7.730;2022-11-15T03:46:40;1.20;;;1.13;;
13708;SDS011;54933;51.908;7.730;2022-11-15T03:48:51;1.10;;;1.10;;
13708;SDS011;54933;51.908;7.730;2022-11-15T03:51:21;1.40;;;1.30;;
13708;SDS011;54933;51.908;7.730;2022-11-15T03:53:47;1.53;;;1.40;;
13708;SDS011;54933;51.908;7.730;2022-11-15T03:56:12;1.60;;;1.40;;
13708;SDS011;54933;51.908;7.730;2022-11-15T03:58:38;1.57;;;1.47;;
13708;SDS011;54933;51.908;7.730;2022-11-15T04:01:03;1.27;;;1.27;;
13708;SDS011;54933;51.908;7.730;2022-11-15T04:03:28;1.50;;;1.40;;
13708;SDS011;54933;51.908;7.730;2022-11-15T04:05:53;1.37;;;1.30;;
13708;SDS011;54933;51.908;7.730;2022-11-15T04:08:19;1.20;;;1.10;;
13708;SDS011;54933;51.908;7.730;2022-11-15T04:10:44;1.67;;;1.30;;
13708;SDS011;54933;51.908;7.730;2022-11-15T04:13:09;1.70;;;1.60;;
13708;SDS011;54933;51.908;7.730;2022-11-15T04:15:35;1.50;;;1.40;;
13708;SDS011;54933;51.908;7.730;2022-11-15T04:18:00;1.13;;;1.13;;
13708;SDS011;54933;51.908;7.730;2022-11-15T04:20:27;1.50;;;1.30;;
13708;SDS011;54933;51.908;7.730;2022-11-15T04:23:14;2.07;;;1.43;;
13708;SDS011;54933;51.908;7.730;2022-11-15T04:26:01;1.37;;;1.33;;
13708;SDS011;54933;51.908;7.730;2022-11-15T04:28:28;1.23;;;1.17;;
13708;SDS011;54933;51.908;7.730;2022-11-15T04:30:54;2.03;;;1.40;;
13708;SDS011;54933;51.908;7.730;2022-11-15T04:33:19;1.13;;;1.13;;
13708;SDS011;54933;51.908;7.730;2022-11-15T04:35:45;1.20;;;1.20;;
13708;SDS011;54933;51.908;7.730;2022-11-15T04:38:30;1.20;;;1.20;;
13708;SDS011;54933;51.908;7.730;2022-11-15T04:40:55;1.13;;;1.13;;
13708;SDS011;54933;51.908;7.730;2022-11-15T04:43:20;1.17;;;1.17;;
13708;SDS011;54933;51.908;7.730;2022-11-15T04:45:46;1.27;;;1.17;;
13708;SDS011;54933;51.908;7.730;2022-11-15T04:48:11;0.97;;;0.97;;
13708;SDS011;54933;51.908;7.730;2022-11-15T04:50:36;1.60;;;1.50;;
13708;SDS011;54933;51.908;7.730;2022-11-15T04:53:01;1.10;;;1.10;;
13708;SDS011;54933;51.908;7.730;2022-11-15T04:55:27;1.17;;;1.10;;
13708;SDS011;54933;51.908;7.730;2022-11-15T04:57:59;1.50;;;1.40;;
13708;SDS011;54933;51.908;7.730;2022-11-15T05:00:25;1.47;;;1.37;;
13708;SDS011;54933;51.908;7.730;2022-11-15T05:02:50;1.50;;;1.40;;
13708;SDS011;54933;51.908;7.730;2022-11-15T05:05:34;1.40;;;1.30;;
13708;SDS011;54933;51.908;7.730;2022-11-15T05:08:00;1.43;;;1.33;;
13708;SDS011;54933;51.908;7.730;2022-11-15T05:10:25;1.40;;;1.30;;
13708;SDS011;54933;51.908;7.730;2022-11-15T05:12:50;1.40;;;1.30;;
13708;SDS011;54933;51.908;7.730;2022-11-15T05:15:16;1.13;;;1.13;;
13708;SDS011;54933;51.908;7.730;2022-11-15T05:17:41;0.90;;;0.90;;
13708;SDS011;54933;51.908;7.730;2022-11-15T05:20:06;1.40;;;1.30;;
13708;SDS011;54933;51.908;7.730;2022-11-15T05:22:32;1.37;;;1.33;;
13708;SDS011;54933;51.908;7.730;2022-11-15T05:24:57;2.60;;;1.33;;
13708;SDS011;54933;51.908;7.730;2022-11-15T05:27:22;1.40;;;1.30;;
13708;SDS011;54933;51.908;7.730;2022-11-15T05:29:48;1.63;;;1.53;;
13708;SDS011;54933;51.908;7.730;2022-11-15T05:32:13;1.27;;;1.10;;
13708;SDS011;54933;51.908;7.730;2022-11-15T05:34:38;1.23;;;1.10;;
13708;SDS011;54933;51.908;7.730;2022-11-15T05:37:04;1.57;;;1.40;;
13708;SDS011;54933;51.908;7.730;2022-11-15T05:39:29;1.20;;;1.10;;
13708;SDS011;54933;51.908;7.730;2022-11-15T05:41:56;1.43;;;1.33;;
13708;SDS011;54933;51.908;7.730;2022-11-15T05:44:27;1.20;;;1.20;;
13708;SDS011;54933;51.908;7.730;2022-11-15T05:46:53;1.27;;;1.27;;
13708;SDS011;54933;51.908;7.730;2022-11-15T05:49:22;1.40;;;1.20;;
13708;SDS011;54933;51.908;7.730;2022-11-15T05:51:51;1.47;;;1.10;;
13708;SDS011;54933;51.908;7.730;2022-11-15T05:54:18;1.27;;;1.17;;
13708;SDS011;54933;51.908;7.730;2022-11-15T05:56:45;1.13;;;1.13;;
13708;SDS011;54933;51.908;7.730;2022-11-15T05:59:10;1.23;;;1.13;;
13708;SDS011;54933;51.908;7.730;2022-11-15T06:01:36;1.10;;;1.10;;
13708;SDS011;54933;51.908;7.730;2022-11-15T06:04:02;1.57;;;1.20;;
13708;SDS011;54933;51.908;7.730;2022-11-15T06:06:28;1.23;;;1.13;;
13708;SDS011;54933;51.908;7.730;2022-11-15T06:08:53;1.47;;;1.37;;
13708;SDS011;54933;51.908;7.730;2022-11-15T06:11:19;1.50;;;1.20;;
13708;SDS011;54933;51.908;7.730;2022-11-15T06:13:44;1.03;;;1.03;;
13708;SDS011;54933;51.908;7.730;2022-11-15T06:16:09;1.73;;;1.63;;
13708;SDS011;54933;51.908;7.730;2022-11-15T06:18:35;3.00;;;1.37;;
13708;SDS011;54933;51.908;7.730;2022-11-15T06:21:01;1.30;;;1.30;;
13708;SDS011;54933;51.908;7.730;2022-11-15T06:23:27;3.00;;;1.63;;
13708;SDS011;54933;51.908;7.730;2022-11-15T06:25:53;2.30;;;2.10;;
13708;SDS011;54933;51.908;7.730;2022-11-15T06:28:18;4.77;;;2.07;;
13708;SDS011;54933;51.908;7.730;2022-11-15T06:30:44;2.33;;;2.13;;
13708;SDS011;54933;51.908;7.730;2022-11-15T06:33:09;4.07;;;2.27;;
13708;SDS011;54933;51.908;7.730;2022-11-15T06:35:35;3.63;;;2.60;;
13708;SDS011;54933;51.908;7.730;2022-11-15T06:38:04;4.10;;;2.70;;
13708;SDS011;54933;51.908;7.730;2022-11-15T06:40:35;4.50;;;3.10;;
13708;SDS011;54933;51.908;7.730;2022-11-15T06:43:02;5.63;;;2.70;;
13708;SDS011;54933;51.908;7.730;2022-11-15T06:45:28;4.63;;;3.30;;
13708;SDS011;54933;51.908;7.730;2022-11-15T06:47:54;6.77;;;3.23;;
13708;SDS011;54933;51.908;7.730;2022-11-15T06:50:19;5.77;;;3.47;;
13708;SDS011;54933;51.908;7.730;2022-11-15T06:52:44;7.17;;;3.80;;
13708;SDS011;54933;51.908;7.730;2022-11-15T06:55:10;8.63;;;3.90;;
13708;SDS011;54933;51.908;7.730;2022-11-15T06:57:35;10.20;;;4.10;;
13708;SDS011;54933;51.908;7.730;2022-11-15T07:00:02;6.67;;;3.67;;
13708;SDS011;54933;51.908;7.730;2022-11-15T07:02:30;8.23;;;4.37;;
13708;SDS011;54933;51.908;7.730;2022-11-15T07:04:55;5.80;;;3.60;;
13708;SDS011;54933;51.908;7.730;2022-11-15T07:07:21;6.43;;;3.73;;
13708;SDS011;54933;51.908;7.730;2022-11-15T07:09:46;6.20;;;3.80;;
13708;SDS011;54933;51.908;7.730;2022-11-15T07:12:11;8.20;;;3.73;;
13708;SDS011;54933;51.908;7.730;2022-11-15T07:14:36;7.63;;;4.20;;
13708;SDS011;54933;51.908;7.730;2022-11-15T07:17:05;7.43;;;4.10;;
13708;SDS011;54933;51.908;7.730;2022-11-15T07:19:30;6.30;;;4.00;;
13708;SDS011;54933;51.908;7.730;2022-11-15T07:21:56;7.57;;;4.17;;
13708;SDS011;54933;51.908;7.730;2022-11-15T07:24:21;8.23;;;4.37;;
13708;SDS011;54933;51.908;7.730;2022-11-15T07:26:46;7.13;;;4.73;;
13708;SDS011;54933;51.908;7.730;2022-11-15T07:29:12;7.77;;;4.80;;
13708;SDS011;54933;51.908;7.730;2022-11-15T07:31:37;7.80;;;4.63;;
13708;SDS011;54933;51.908;7.730;2022-11-15T07:34:03;8.80;;;4.50;;
13708;SDS011;54933;51.908;7.730;2022-11-15T07:36:28;7.43;;;4.63;;
13708;SDS011;54933;51.908;7.730;2022-11-15T07:38:53;7.47;;;3.63;;
13708;SDS011;54933;51.908;7.730;2022-11-15T07:41:18;6.43;;;4.63;;
13708;SDS011;54933;51.908;7.730;2022-11-15T07:43:44;9.03;;;4.23;;
13708;SDS011;54933;51.908;7.730;2022-11-15T07:46:09;8.47;;;4.27;;
13708;SDS011;54933;51.908;7.730;2022-11-15T07:48:37;7.67;;;4.33;;
13708;SDS011;54933;51.908;7.730;2022-11-15T07:51:05;7.10;;;3.90;;
13708;SDS011;54933;51.908;7.730;2022-11-15T07:53:30;8.93;;;4.63;;
13708;SDS011;54933;51.908;7.730;2022-11-15T07:55:56;10.27;;;3.90;;
13708;SDS011;54933;51.908;7.730;2022-11-15T07:58:21;8.13;;;4.53;;
13708;SDS011;54933;51.908;7.730;2022-11-15T08:00:46;8.80;;;4.57;;
13708;SDS011;54933;51.908;7.730;2022-11-15T08:03:13;7.07;;;4.33;;
13708;SDS011;54933;51.908;7.730;2022-11-15T08:05:42;7.23;;;4.37;;
13708;SDS011;54933;51.908;7.730;2022-11-15T08:08:09;7.53;;;4.47;;
13708;SDS011;54933;51.908;7.730;2022-11-15T08:10:35;8.93;;;5.10;;
13708;SDS011;54933;51.908;7.730;2022-11-15T08:13:02;6.87;;;4.23;;
13708;SDS011;54933;51.908;7.730;2022-11-15T08:15:29;5.83;;;4.07;;
13708;SDS011;54933;51.908;7.730;2022-11-15T08:17:56;6.77;;;4.60;;
13708;SDS011;54933;51.908;7.730;2022-11-15T08:20:23;9.97;;;4.93;;
13708;SDS011;54933;51.908;7.730;2022-11-15T08:22:49;6.30;;;4.20;;
13708;SDS011;54933;51.908;7.730;2022-11-15T08:25:14;6.00;;;4.50;;
13708;SDS011;54933;51.908;7.730;2022-11-15T08:27:40;6.53;;;4.57;;
13708;SDS011;54933;51.908;7.730;2022-11-15T08:30:05;6.43;;;4.07;;
13708;SDS011;54933;51.908;7.730;2022-11-15T08:32:32;6.47;;;4.00;;
13708;SDS011;54933;51.908;7.730;2022-11-15T08:34:57;6.70;;;4.20;;
13708;SDS011;54933;51.908;7.730;2022-11-15T08:37:22;5.73;;;3.87;;
13708;SDS011;54933;51.908;7.730;2022-11-15T08:39:48;8.00;;;3.80;;
13708;SDS011;54933;51.908;7.730;2022-11-15T08:42:13;7.10;;;4.37;;
13708;SDS011;54933;51.908;7.730;2022-11-15T08:44:39;7.00;;;4.27;;
13708;SDS011;54933;51.908;7.730;2022-11-15T08:47:05;6.03;;;4.10;;
13708;SDS011;54933;51.908;7.730;2022-11-15T08:49:30;9.00;;;4.90;;
13708;SDS011;54933;51.908;7.730;2022-11-15T08:51:55;6.73;;;4.47;;
13708;SDS011;54933;51.908;7.730;2022-11-15T08:54:20;4.80;;;3.73;;
13708;SDS011;54933;51.908;7.730;2022-11-15T08:56:46;7.83;;;4.23;;
13708;SDS011;54933;51.908;7.730;2022-11-15T08:59:11;8.97;;;4.37;;
13708;SDS011;54933;51.908;7.730;2022-11-15T09:01:36;8.03;;;4.33;;
13708;SDS011;54933;51.908;7.730;2022-11-15T09:04:02;9.23;;;3.73;;
13708;SDS011;54933;51.908;7.730;2022-11-15T09:06:28;7.03;;;4.10;;
13708;SDS011;54933;51.908;7.730;2022-11-15T09:08:54;8.47;;;4.20;;
13708;SDS011;54933;51.908;7.730;2022-11-15T09:11:19;7.57;;;3.77;;
13708;SDS011;54933;51.908;7.730;2022-11-15T09:13:46;7.43;;;3.90;;
13708;SDS011;54933;51.908;7.730;2022-11-15T09:16:11;6.37;;;3.93;;
13708;SDS011;54933;51.908;7.730;2022-11-15T09:18:37;5.50;;;3.70;;
13708;SDS011;54933;51.908;7.730;2022-11-15T09:21:03;8.53;;;4.03;;
13708;SDS011;54933;51.908;7.730;2022-11-15T09:23:29;6.60;;;3.77;;
13708;SDS011;54933;51.908;7.730;2022-11-15T09:25:59;11.37;;;4.50;;
13708;SDS011;54933;51.908;7.730;2022-11-15T09:28:26;5.70;;;4.00;;
13708;SDS011;54933;51.908;7.730;2022-11-15T09:30:55;5.47;;;3.63;;
13708;SDS011;54933;51.908;7.730;2022-11-15T09:33:21;5.90;;;3.40;;
13708;SDS011;54933;51.908;7.730;2022-11-15T09:35:46;5.00;;;3.70;;
13708;SDS011;54933;51.908;7.730;2022-11-15T09:38:11;5.13;;;3.57;;
13708;SDS011;54933;51.908;7.730;2022-11-15T09:40:37;6.10;;;4.00;;
13708;SDS011;54933;51.908;7.730;2022-11-15T09:46:01;4.83;;;3.57;;
13708;SDS011;54933;51.908;7.730;2022-11-15T09:48:41;6.10;;;3.53;;
13708;SDS011;54933;51.908;7.730;2022-11-15T09:51:34;5.83;;;3.40;;
13708;SDS011;54933;51.908;7.730;2022-11-15T09:54:13;4.77;;;3.40;;
13708;SDS011;54933;51.908;7.730;2022-11-15T09:56:46;6.73;;;3.27;;
13708;SDS011;54933;51.908;7.730;2022-11-15T10:04:37;4.73;;;3.33;;
13708;SDS011;54933;51.908;7.730;2022-11-15T10:07:14;5.43;;;3.83;;
13708;SDS011;54933;51.908;7.730;2022-11-15T10:09:46;4.97;;;3.43;;
13708;SDS011;54933;51.908;7.730;2022-11-15T10:12:15;4.53;;;3.07;;
13708;SDS011;54933;51.908;7.730;2022-11-15T10:14:42;6.20;;;3.20;;
13708;SDS011;54933;51.908;7.730;2022-11-15T10:17:18;5.07;;;3.53;;
13708;SDS011;54933;51.908;7.730;2022-11-15T10:22:24;4.47;;;3.00;;
13708;SDS011;54933;51.908;7.730;2022-11-15T10:27:34;5.90;;;3.33;;
13708;SDS011;54933;51.908;7.730;2022-11-15T10:29:59;6.10;;;3.20;;
13708;SDS011;54933;51.908;7.730;2022-11-15T10:32:25;3.30;;;2.73;;
13708;SDS011;54933;51.908;7.730;2022-11-15T10:34:51;3.80;;;2.87;;
13708;SDS011;54933;51.908;7.730;2022-11-15T10:37:26;4.70;;;2.90;;
13708;SDS011;54933;51.908;7.730;2022-11-15T10:40:06;6.87;;;2.80;;
13708;SDS011;54933;51.908;7.730;2022-11-15T10:42:40;3.90;;;2.67;;
13708;SDS011;54933;51.908;7.730;2022-11-15T10:50:38;5.13;;;2.73;;
13708;SDS011;54933;51.908;7.730;2022-11-15T10:53:14;4.20;;;2.73;;
13708;SDS011;54933;51.908;7.730;2022-11-15T10:55:47;4.27;;;3.10;;
13708;SDS011;54933;51.908;7.730;2022-11-15T11:01:14;3.50;;;2.37;;
13708;SDS011;54933;51.908;7.730;2022-11-15T11:03:42;2.53;;;2.10;;
13708;SDS011;54933;51.908;7.730;2022-11-15T11:08:39;2.70;;;2.27;;
13708;SDS011;54933;51.908;7.730;2022-11-15T11:11:06;3.77;;;2.33;;
13708;SDS011;54933;51.908;7.730;2022-11-15T11:13:37;3.50;;;2.90;;
13708;SDS011;54933;51.908;7.730;2022-11-15T11:18:49;4.43;;;2.47;;
13708;SDS011;54933;51.908;7.730;2022-11-15T11:21:32;4.00;;;2.70;;
13708;SDS011;54933;51.908;7.730;2022-11-15T11:26:55;3.27;;;2.17;;
13708;SDS011;54933;51.908;7.730;2022-11-15T11:32:49;3.03;;;2.00;;
13708;SDS011;54933;51.908;7.730;2022-11-15T11:35:27;3.13;;;2.30;;
13708;SDS011;54933;51.908;7.730;2022-11-15T11:38:15;3.87;;;2.07;;
13708;SDS011;54933;51.908;7.730;2022-11-15T11:49:09;3.07;;;2.00;;
13708;SDS011;54933;51.908;7.730;2022-11-15T11:51:42;2.90;;;2.00;;
13708;SDS011;54933;51.908;7.730;2022-11-15T11:54:14;2.20;;;2.00;;
13708;SDS011;54933;51.908;7.730;2022-11-15T11:56:45;2.33;;;1.90;;
13708;SDS011;54933;51.908;7.730;2022-11-15T11:59:25;1.80;;;1.70;;
13708;SDS011;54933;51.908;7.730;2022-11-15T12:02:01;2.23;;;1.80;;
13708;SDS011;54933;51.908;7.730;2022-11-15T12:04:38;2.53;;;2.00;;
13708;SDS011;54933;51.908;7.730;2022-11-15T12:09:58;2.40;;;2.00;;
13708;SDS011;54933;51.908;7.730;2022-11-15T12:15:17;2.53;;;2.17;;
13708;SDS011;54933;51.908;7.730;2022-11-15T12:17:47;2.43;;;1.67;;
13708;SDS011;54933;51.908;7.730;2022-11-15T12:20:17;3.60;;;1.73;;
13708;SDS011;54933;51.908;7.730;2022-11-15T12:22:58;1.57;;;1.47;;
13708;SDS011;54933;51.908;7.730;2022-11-15T12:25:50;2.40;;;1.57;;
13708;SDS011;54933;51.908;7.730;2022-11-15T12:28:24;2.30;;;1.80;;
13708;SDS011;54933;51.908;7.730;2022-11-15T12:30:56;2.30;;;1.60;;
13708;SDS011;54933;51.908;7.730;2022-11-15T12:33:39;2.77;;;1.77;;
13708;SDS011;54933;51.908;7.730;2022-11-15T12:36:10;1.60;;;1.50;;
13708;SDS011;54933;51.908;7.730;2022-11-15T12:38:58;1.63;;;1.50;;
13708;SDS011;54933;51.908;7.730;2022-11-15T12:43:52;2.30;;;1.90;;
13708;SDS011;54933;51.908;7.730;2022-11-15T12:56:47;1.50;;;1.40;;
13708;SDS011;54933;51.908;7.730;2022-11-15T12:59:50;2.03;;;1.60;;
13708;SDS011;54933;51.908;7.730;2022-11-15T13:02:24;1.60;;;1.50;;
13708;SDS011;54933;51.908;7.730;2022-11-15T13:04:51;2.20;;;1.83;;
13708;SDS011;54933;51.908;7.730;2022-11-15T13:08:06;1.70;;;1.60;;
13708;SDS011;54933;51.908;7.730;2022-11-15T13:12:56;1.53;;;1.43;;
13708;SDS011;54933;51.908;7.730;2022-11-15T13:15:32;1.97;;;1.73;;
13708;SDS011;54933;51.908;7.730;2022-11-15T13:21:04;1.67;;;1.57;;
13708;SDS011;54933;51.908;7.730;2022-11-15T13:24:03;1.70;;;1.60;;
13708;SDS011;54933;51.908;7.730;2022-11-15T13:26:29;2.17;;;1.40;;
13708;SDS011;54933;51.908;7.730;2022-11-15T13:28:54;1.53;;;1.37;;
13708;SDS011;54933;51.908;7.730;2022-11-15T13:33:49;1.50;;;1.40;;
13708;SDS011;54933;51.908;7.730;2022-11-15T13:36:24;1.77;;;1.27;;
13708;SDS011;54933;51.908;7.730;2022-11-15T13:38:59;1.30;;;1.20;;
13708;SDS011;54933;51.908;7.730;2022-11-15T13:41:28;1.57;;;1.40;;
13708;SDS011;54933;51.908;7.730;2022-11-15T13:43:56;1.50;;;1.40;;
13708;SDS011;54933;51.908;7.730;2022-11-15T13:46:23;1.30;;;1.20;;
13708;SDS011;54933;51.908;7.730;2022-11-15T13:48:59;4.23;;;1.40;;
13708;SDS011;54933;51.908;7.730;2022-11-15T13:54:20;1.67;;;1.20;;
13708;SDS011;54933;51.908;7.730;2022-11-15T13:57:04;2.00;;;1.40;;
13708;SDS011;54933;51.908;7.730;2022-11-15T13:59:36;2.13;;;1.33;;
13708;SDS011;54933;51.908;7.730;2022-11-15T14:02:17;1.20;;;1.10;;
13708;SDS011;54933;51.908;7.730;2022-11-15T14:05:00;2.10;;;1.30;;
13708;SDS011;54933;51.908;7.730;2022-11-15T14:07:29;1.47;;;1.37;;
13708;SDS011;54933;51.908;7.730;2022-11-15T14:09:56;1.77;;;1.47;;
13708;SDS011;54933;51.908;7.730;2022-11-15T14:12:32;1.30;;;1.20;;
13708;SDS011;54933;51.908;7.730;2022-11-15T14:15:00;1.67;;;1.10;;
13708;SDS011;54933;51.908;7.730;2022-11-15T14:17:42;2.33;;;1.47;;
13708;SDS011;54933;51.908;7.730;2022-11-15T14:22:55;1.80;;;1.23;;
13708;SDS011;54933;51.908;7.730;2022-11-15T14:25:29;2.93;;;1.30;;
13708;SDS011;54933;51.908;7.730;2022-11-15T14:30:42;1.57;;;1.30;;
13708;SDS011;54933;51.908;7.730;2022-11-15T14:36:10;3.67;;;1.20;;
13708;SDS011;54933;51.908;7.730;2022-11-15T14:38:37;1.40;;;1.20;;
13708;SDS011;54933;51.908;7.730;2022-11-15T14:41:03;1.33;;;1.03;;
13708;SDS011;54933;51.908;7.730;2022-11-15T14:43:28;7.13;;;1.20;;
13708;SDS011;54933;51.908;7.730;2022-11-15T14:45:54;6.00;;;1.20;;
13708;SDS011;54933;51.908;7.730;2022-11-15T14:48:19;3.37;;;1.40;;
13708;SDS011;54933;51.908;7.730;2022-11-15T14:50:45;2.13;;;1.50;;
13708;SDS011;54933;51.908;7.730;2022-11-15T14:53:14;1.80;;;1.40;;
13708;SDS011;54933;51.908;7.730;2022-11-15T14:55:41;3.87;;;1.40;;
13708;SDS011;54933;51.908;7.730;2022-11-15T14:58:06;3.90;;;1.30;;
13708;SDS011;54933;51.908;7.730;2022-11-15T15:00:33;6.23;;;1.50;;
13708;SDS011;54933;51.908;7.730;2022-11-15T15:02:59;2.37;;;1.37;;
13708;SDS011;54933;51.908;7.730;2022-11-15T15:05:30;2.13;;;1.10;;
13708;SDS011;54933;51.908;7.730;2022-11-15T15:08:00;1.87;;;1.10;;
13708;SDS011;54933;51.908;7.730;2022-11-15T15:10:27;1.43;;;1.33;;
13708;SDS011;54933;51.908;7.730;2022-11-15T15:13:05;2.43;;;1.20;;
13708;SDS011;54933;51.908;7.730;2022-11-15T15:15:32;4.67;;;1.63;;
13708;SDS011;54933;51.908;7.730;2022-11-15T15:17:59;12.80;;;2.00;;
13708;SDS011;54933;51.908;7.730;2022-11-15T15:20:24;12.93;;;2.17;;
13708;SDS011;54933;51.908;7.730;2022-11-15T15:22:49;20.20;;;2.70;;
13708;SDS011;54933;51.908;7.730;2022-11-15T15:25:22;13.10;;;2.90;;
13708;SDS011;54933;51.908;7.730;2022-11-15T15:27:51;9.37;;;2.90;;
13708;SDS011;54933;51.908;7.730;2022-11-15T15:30:17;9.50;;;2.90;;
13708;SDS011;54933;51.908;7.730;2022-11-15T15:32:43;9.87;;;2.83;;
13708;SDS011;54933;51.908;7.730;2022-11-15T15:35:11;12.70;;;3.60;;
13708;SDS011;54933;51.908;7.730;2022-11-15T15:37:37;14.70;;;3.90;;
13708;SDS011;54933;51.908;7.730;2022-11-15T15:40:02;11.80;;;3.93;;
13708;SDS011;54933;51.908;7.730;2022-11-15T15:42:27;12.23;;;5.17;;
13708;SDS011;54933;51.908;7.730;2022-11-15T15:44:53;14.60;;;5.13;;
13708;SDS011;54933;51.908;7.730;2022-11-15T15:47:18;17.43;;;6.27;;
13708;SDS011;54933;51.908;7.730;2022-11-15T15:49:45;16.97;;;7.00;;
13708;SDS011;54933;51.908;7.730;2022-11-15T15:52:11;15.37;;;6.03;;
13708;SDS011;54933;51.908;7.730;2022-11-15T15:54:37;22.43;;;5.90;;
13708;SDS011;54933;51.908;7.730;2022-11-15T15:57:02;13.97;;;5.60;;
13708;SDS011;54933;51.908;7.730;2022-11-15T15:59:28;21.80;;;6.00;;
13708;SDS011;54933;51.908;7.730;2022-11-15T16:01:53;11.67;;;6.13;;
13708;SDS011;54933;51.908;7.730;2022-11-15T16:04:18;10.13;;;5.67;;
13708;SDS011;54933;51.908;7.730;2022-11-15T16:06:44;19.53;;;6.10;;
13708;SDS011;54933;51.908;7.730;2022-11-15T16:09:15;15.43;;;6.03;;
13708;SDS011;54933;51.908;7.730;2022-11-15T16:11:43;13.93;;;5.67;;
13708;SDS011;54933;51.908;7.730;2022-11-15T16:14:10;11.90;;;5.30;;
13708;SDS011;54933;51.908;7.730;2022-11-15T16:16:35;13.07;;;5.30;;
13708;SDS011;54933;51.908;7.730;2022-11-15T16:19:01;13.60;;;5.10;;
13708;SDS011;54933;51.908;7.730;2022-11-15T16:21:27;13.63;;;5.47;;
13708;SDS011;54933;51.908;7.730;2022-11-15T16:23:52;12.60;;;5.00;;
13708;SDS011;54933;51.908;7.730;2022-11-15T16:26:20;10.40;;;5.00;;
13708;SDS011;54933;51.908;7.730;2022-11-15T16:28:46;11.30;;;5.77;;
13708;SDS011;54933;51.908;7.730;2022-11-15T16:31:12;14.90;;;5.33;;
13708;SDS011;54933;51.908;7.730;2022-11-15T16:33:37;13.30;;;5.87;;